﻿<?xml version="1.0" encoding="utf-8"?><gpx creator="Garmin Desktop App" version="1.1" xsi:schemaLocation="http://www.topografix.com/GPX/1/1 http://www.topografix.com/GPX/1/1/gpx.xsd http://www.garmin.com/xmlschemas/WaypointExtension/v1 http://www8.garmin.com/xmlschemas/WaypointExtensionv1.xsd http://www.garmin.com/xmlschemas/TrackPointExtension/v1 http://www.garmin.com/xmlschemas/TrackPointExtensionv1.xsd http://www.garmin.com/xmlschemas/GpxExtensions/v3 http://www8.garmin.com/xmlschemas/GpxExtensionsv3.xsd http://www.garmin.com/xmlschemas/ActivityExtension/v1 http://www8.garmin.com/xmlschemas/ActivityExtensionv1.xsd http://www.garmin.com/xmlschemas/AdventuresExtensions/v1 http://www8.garmin.com/xmlschemas/AdventuresExtensionv1.xsd http://www.garmin.com/xmlschemas/PressureExtension/v1 http://www.garmin.com/xmlschemas/PressureExtensionv1.xsd http://www.garmin.com/xmlschemas/TripExtensions/v1 http://www.garmin.com/xmlschemas/TripExtensionsv1.xsd http://www.garmin.com/xmlschemas/TripMetaDataExtensions/v1 http://www.garmin.com/xmlschemas/TripMetaDataExtensionsv1.xsd http://www.garmin.com/xmlschemas/ViaPointTransportationModeExtensions/v1 http://www.garmin.com/xmlschemas/ViaPointTransportationModeExtensionsv1.xsd http://www.garmin.com/xmlschemas/CreationTimeExtension/v1 http://www.garmin.com/xmlschemas/CreationTimeExtensionsv1.xsd http://www.garmin.com/xmlschemas/AccelerationExtension/v1 http://www.garmin.com/xmlschemas/AccelerationExtensionv1.xsd http://www.garmin.com/xmlschemas/PowerExtension/v1 http://www.garmin.com/xmlschemas/PowerExtensionv1.xsd http://www.garmin.com/xmlschemas/VideoExtension/v1 http://www.garmin.com/xmlschemas/VideoExtensionv1.xsd" xmlns="http://www.topografix.com/GPX/1/1" xmlns:xsi="http://www.w3.org/2001/XMLSchema-instance" xmlns:wptx1="http://www.garmin.com/xmlschemas/WaypointExtension/v1" xmlns:gpxtrx="http://www.garmin.com/xmlschemas/GpxExtensions/v3" xmlns:gpxtpx="http://www.garmin.com/xmlschemas/TrackPointExtension/v1" xmlns:gpxx="http://www.garmin.com/xmlschemas/GpxExtensions/v3" xmlns:trp="http://www.garmin.com/xmlschemas/TripExtensions/v1" xmlns:adv="http://www.garmin.com/xmlschemas/AdventuresExtensions/v1" xmlns:prs="http://www.garmin.com/xmlschemas/PressureExtension/v1" xmlns:tmd="http://www.garmin.com/xmlschemas/TripMetaDataExtensions/v1" xmlns:vptm="http://www.garmin.com/xmlschemas/ViaPointTransportationModeExtensions/v1" xmlns:ctx="http://www.garmin.com/xmlschemas/CreationTimeExtension/v1" xmlns:gpxacc="http://www.garmin.com/xmlschemas/AccelerationExtension/v1" xmlns:gpxpx="http://www.garmin.com/xmlschemas/PowerExtension/v1" xmlns:vidx1="http://www.garmin.com/xmlschemas/VideoExtension/v1">

  <metadata>
    <link href="http://www.garmin.com">
      <text>Garmin International</text>
    </link>
    <time>2021-08-22T18:49:43Z</time>
    <bounds maxlat="50.766710238531232" maxlon="4.454818172380328" minlat="50.736041776835918" minlon="4.418161427602172" />
  </metadata>

  <trk>
    <name>station lus zuid 11 km</name>
    <extensions>
      <gpxx:TrackExtension>
        <gpxx:DisplayColor>Blue</gpxx:DisplayColor>
      </gpxx:TrackExtension>
    </extensions>
    <trkseg>
      <trkpt lat="50.766511084511876" lon="4.449505219236016">
        <ele>90.75</ele>
        <time>2020-03-15T10:05:45Z</time>
      </trkpt>
      <trkpt lat="50.766393067315221" lon="4.449709570035338">
        <ele>89.780000000000001</ele>
        <time>2020-03-15T10:06:00Z</time>
      </trkpt>
      <trkpt lat="50.766368005424738" lon="4.449762459844351">
        <ele>89.769999999999996</ele>
        <time>2020-03-15T10:06:03Z</time>
      </trkpt>
      <trkpt lat="50.766312601044774" lon="4.449900761246681">
        <ele>87.260000000000005</ele>
        <time>2020-03-15T10:06:12Z</time>
      </trkpt>
      <trkpt lat="50.766246048733592" lon="4.450022717937827">
        <ele>87.219999999999999</ele>
        <time>2020-03-15T10:06:19Z</time>
      </trkpt>
      <trkpt lat="50.766199948266149" lon="4.450069656595588">
        <ele>87.219999999999999</ele>
        <time>2020-03-15T10:06:22Z</time>
      </trkpt>
      <trkpt lat="50.766180083155632" lon="4.450128749012947">
        <ele>87.140000000000001</ele>
        <time>2020-03-15T10:06:37Z</time>
      </trkpt>
      <trkpt lat="50.765997776761651" lon="4.44975164718926">
        <ele>87.129999999999995</ele>
        <time>2020-03-15T10:06:55Z</time>
      </trkpt>
      <trkpt lat="50.76580423861742" lon="4.449160890653729">
        <ele>89.489999999999995</ele>
        <time>2020-03-15T10:07:15Z</time>
      </trkpt>
      <trkpt lat="50.765739446505904" lon="4.448993587866426">
        <ele>89.480000000000004</ele>
        <time>2020-03-15T10:07:22Z</time>
      </trkpt>
      <trkpt lat="50.765255559235811" lon="4.447751473635435">
        <ele>94.150000000000006</ele>
        <time>2020-03-15T10:08:50Z</time>
      </trkpt>
      <trkpt lat="50.765135362744331" lon="4.447813332080841">
        <ele>94.859999999999999</ele>
        <time>2020-03-15T10:09:06Z</time>
      </trkpt>
      <trkpt lat="50.76491148211062" lon="4.448057245463133">
        <ele>94.75</ele>
        <time>2020-03-15T10:09:27Z</time>
      </trkpt>
      <trkpt lat="50.76460319571197" lon="4.448380786925554">
        <ele>94.609999999999999</ele>
        <time>2020-03-15T10:09:51Z</time>
      </trkpt>
      <trkpt lat="50.764530021697283" lon="4.448515987023711">
        <ele>92.180000000000007</ele>
        <time>2020-03-15T10:09:59Z</time>
      </trkpt>
      <trkpt lat="50.76445416547358" lon="4.448622269555926">
        <ele>90.890000000000001</ele>
        <time>2020-03-15T10:10:06Z</time>
      </trkpt>
      <trkpt lat="50.764435892924666" lon="4.448691755533218">
        <ele>90.829999999999998</ele>
        <time>2020-03-15T10:10:10Z</time>
      </trkpt>
      <trkpt lat="50.764411836862564" lon="4.449051506817341">
        <ele>89.879999999999995</ele>
        <time>2020-03-15T10:10:31Z</time>
      </trkpt>
      <trkpt lat="50.764267584308982" lon="4.44958359003067">
        <ele>86.859999999999999</ele>
        <time>2020-03-15T10:10:56Z</time>
      </trkpt>
      <trkpt lat="50.764040853828192" lon="4.449707977473736">
        <ele>82.069999999999993</ele>
        <time>2020-03-15T10:11:11Z</time>
      </trkpt>
      <trkpt lat="50.76394353993237" lon="4.449714766815305">
        <ele>80.069999999999993</ele>
        <time>2020-03-15T10:11:19Z</time>
      </trkpt>
      <trkpt lat="50.763793922960758" lon="4.449692470952869">
        <ele>75.760000000000005</ele>
        <time>2020-03-15T10:11:33Z</time>
      </trkpt>
      <trkpt lat="50.763783697038889" lon="4.449701271951199">
        <ele>75.760000000000005</ele>
        <time>2020-03-15T10:11:34Z</time>
      </trkpt>
      <trkpt lat="50.76372904703021" lon="4.449698338285089">
        <ele>74.599999999999994</ele>
        <time>2020-03-15T10:11:48Z</time>
      </trkpt>
      <trkpt lat="50.763660902157426" lon="4.449681742116809">
        <ele>77.930000000000007</ele>
        <time>2020-03-15T10:11:54Z</time>
      </trkpt>
      <trkpt lat="50.763607928529382" lon="4.44963438436389">
        <ele>77.939999999999998</ele>
        <time>2020-03-15T10:11:55Z</time>
      </trkpt>
      <trkpt lat="50.763467531651258" lon="4.449666235595942">
        <ele>79.700000000000003</ele>
        <time>2020-03-15T10:12:02Z</time>
      </trkpt>
      <trkpt lat="50.763556463643909" lon="4.450121792033315">
        <ele>80.409999999999997</ele>
        <time>2020-03-15T10:12:13Z</time>
      </trkpt>
      <trkpt lat="50.76353894546628" lon="4.45025053806603">
        <ele>81.430000000000007</ele>
        <time>2020-03-15T10:12:17Z</time>
      </trkpt>
      <trkpt lat="50.763492677360773" lon="4.450472658500075">
        <ele>81.189999999999998</ele>
        <time>2020-03-15T10:12:27Z</time>
      </trkpt>
      <trkpt lat="50.763233928009868" lon="4.450700730085373">
        <ele>80.719999999999999</ele>
        <time>2020-03-15T10:12:48Z</time>
      </trkpt>
      <trkpt lat="50.763018094003201" lon="4.450740460306406">
        <ele>80.230000000000004</ele>
        <time>2020-03-15T10:13:07Z</time>
      </trkpt>
      <trkpt lat="50.762931341305375" lon="4.450793853029609">
        <ele>77.859999999999999</ele>
        <time>2020-03-15T10:13:12Z</time>
      </trkpt>
      <trkpt lat="50.762905525043607" lon="4.450840121135116">
        <ele>77.810000000000002</ele>
        <time>2020-03-15T10:13:14Z</time>
      </trkpt>
      <trkpt lat="50.762725565582514" lon="4.451012285426259">
        <ele>76.450000000000003</ele>
        <time>2020-03-15T10:13:31Z</time>
      </trkpt>
      <trkpt lat="50.762535128742456" lon="4.451134409755468">
        <ele>76.209999999999994</ele>
        <time>2020-03-15T10:13:42Z</time>
      </trkpt>
      <trkpt lat="50.762268751859665" lon="4.451230047270656">
        <ele>75.879999999999995</ele>
        <time>2020-03-15T10:13:58Z</time>
      </trkpt>
      <trkpt lat="50.762065574526787" lon="4.451315961778164">
        <ele>75.450000000000003</ele>
        <time>2020-03-15T10:14:20Z</time>
      </trkpt>
      <trkpt lat="50.761862564831972" lon="4.451569011434913">
        <ele>73.519999999999996</ele>
        <time>2020-03-15T10:14:40Z</time>
      </trkpt>
      <trkpt lat="50.761631391942501" lon="4.4517907127738">
        <ele>82.969999999999999</ele>
        <time>2020-03-15T10:14:57Z</time>
      </trkpt>
      <trkpt lat="50.761619405820966" lon="4.451794987544417">
        <ele>78.159999999999997</ele>
        <time>2020-03-15T10:14:58Z</time>
      </trkpt>
      <trkpt lat="50.761603647843003" lon="4.451805297285318">
        <ele>74.379999999999995</ele>
        <time>2020-03-15T10:14:59Z</time>
      </trkpt>
      <trkpt lat="50.761590907350183" lon="4.451819965615869">
        <ele>74.359999999999999</ele>
        <time>2020-03-15T10:15:00Z</time>
      </trkpt>
      <trkpt lat="50.76138362288475" lon="4.451990369707346">
        <ele>74.099999999999994</ele>
        <time>2020-03-15T10:15:14Z</time>
      </trkpt>
      <trkpt lat="50.76121162623167" lon="4.452080056071281">
        <ele>73.859999999999999</ele>
        <time>2020-03-15T10:15:28Z</time>
      </trkpt>
      <trkpt lat="50.761050945147872" lon="4.452352216467261">
        <ele>73.489999999999995</ele>
        <time>2020-03-15T10:15:48Z</time>
      </trkpt>
      <trkpt lat="50.760869979858398" lon="4.452725211158395">
        <ele>73.090000000000003</ele>
        <time>2020-03-15T10:16:08Z</time>
      </trkpt>
      <trkpt lat="50.760856233537197" lon="4.452745076268911">
        <ele>73.060000000000002</ele>
        <time>2020-03-15T10:16:09Z</time>
      </trkpt>
      <trkpt lat="50.760677698999643" lon="4.453168362379074">
        <ele>72.620000000000005</ele>
        <time>2020-03-15T10:16:25Z</time>
      </trkpt>
      <trkpt lat="50.760600669309497" lon="4.453359385952354">
        <ele>72.329999999999998</ele>
        <time>2020-03-15T10:16:35Z</time>
      </trkpt>
      <trkpt lat="50.760501762852073" lon="4.453512690961361">
        <ele>74.819999999999993</ele>
        <time>2020-03-15T10:16:45Z</time>
      </trkpt>
      <trkpt lat="50.760354660451412" lon="4.453841932117939">
        <ele>75.090000000000003</ele>
        <time>2020-03-15T10:17:03Z</time>
      </trkpt>
      <trkpt lat="50.760285425931215" lon="4.454072685912252">
        <ele>72.469999999999999</ele>
        <time>2020-03-15T10:17:18Z</time>
      </trkpt>
      <trkpt lat="50.760286431759596" lon="4.454074110835791">
        <ele>76.709999999999994</ele>
        <time>2020-03-15T10:17:19Z</time>
      </trkpt>
      <trkpt lat="50.760285761207342" lon="4.454087689518929">
        <ele>76.670000000000002</ele>
        <time>2020-03-15T10:17:20Z</time>
      </trkpt>
      <trkpt lat="50.760209318250418" lon="4.454293884336948">
        <ele>73.959999999999994</ele>
        <time>2020-03-15T10:17:34Z</time>
      </trkpt>
      <trkpt lat="50.760032627731562" lon="4.454452972859144">
        <ele>74.650000000000006</ele>
        <time>2020-03-15T10:17:47Z</time>
      </trkpt>
      <trkpt lat="50.759825091809034" lon="4.454540982842445">
        <ele>74.299999999999997</ele>
        <time>2020-03-15T10:18:01Z</time>
      </trkpt>
      <trkpt lat="50.759397866204381" lon="4.454585071653128">
        <ele>73.430000000000007</ele>
        <time>2020-03-15T10:18:27Z</time>
      </trkpt>
      <trkpt lat="50.759236011654139" lon="4.454461438581348">
        <ele>73.090000000000003</ele>
        <time>2020-03-15T10:18:43Z</time>
      </trkpt>
      <trkpt lat="50.75907583348453" lon="4.454281898215413">
        <ele>73.439999999999998</ele>
        <time>2020-03-15T10:19:02Z</time>
      </trkpt>
      <trkpt lat="50.758821023628116" lon="4.453947879374027">
        <ele>72.969999999999999</ele>
        <time>2020-03-15T10:19:23Z</time>
      </trkpt>
      <trkpt lat="50.758689679205418" lon="4.453791473060846">
        <ele>72.75</ele>
        <time>2020-03-15T10:19:34Z</time>
      </trkpt>
      <trkpt lat="50.758609799668193" lon="4.453710503876209">
        <ele>72.670000000000002</ele>
        <time>2020-03-15T10:19:38Z</time>
      </trkpt>
      <trkpt lat="50.758573254570365" lon="4.453656859695911">
        <ele>72.609999999999999</ele>
        <time>2020-03-15T10:19:40Z</time>
      </trkpt>
      <trkpt lat="50.758302267640829" lon="4.453293588012457">
        <ele>72.450000000000003</ele>
        <time>2020-03-15T10:19:49Z</time>
      </trkpt>
      <trkpt lat="50.758204031735659" lon="4.45315889082849">
        <ele>73.280000000000001</ele>
        <time>2020-03-15T10:19:53Z</time>
      </trkpt>
      <trkpt lat="50.758172851055861" lon="4.453137433156371">
        <ele>73.230000000000004</ele>
        <time>2020-03-15T10:19:54Z</time>
      </trkpt>
      <trkpt lat="50.757904797792435" lon="4.452957473695278">
        <ele>73.879999999999995</ele>
        <time>2020-03-15T10:20:05Z</time>
      </trkpt>
      <trkpt lat="50.757345054298639" lon="4.452720014378429">
        <ele>73.569999999999993</ele>
        <time>2020-03-15T10:20:43Z</time>
      </trkpt>
      <trkpt lat="50.757028134539723" lon="4.452558914199472">
        <ele>73.349999999999994</ele>
        <time>2020-03-15T10:20:52Z</time>
      </trkpt>
      <trkpt lat="50.756885223090649" lon="4.452552292495966">
        <ele>73.269999999999996</ele>
        <time>2020-03-15T10:20:55Z</time>
      </trkpt>
      <trkpt lat="50.756778102368116" lon="4.452512981370091">
        <ele>73.219999999999999</ele>
        <time>2020-03-15T10:20:57Z</time>
      </trkpt>
      <trkpt lat="50.756723619997501" lon="4.452504431828857">
        <ele>73.189999999999998</ele>
        <time>2020-03-15T10:20:58Z</time>
      </trkpt>
      <trkpt lat="50.75661214068532" lon="4.452483979985118">
        <ele>74.129999999999995</ele>
        <time>2020-03-15T10:21:00Z</time>
      </trkpt>
      <trkpt lat="50.756571153178811" lon="4.452464953064919">
        <ele>74.099999999999994</ele>
        <time>2020-03-15T10:21:01Z</time>
      </trkpt>
      <trkpt lat="50.756525890901685" lon="4.452435951679945">
        <ele>74.069999999999993</ele>
        <time>2020-03-15T10:21:02Z</time>
      </trkpt>
      <trkpt lat="50.756464200094342" lon="4.452417260035873">
        <ele>74.040000000000006</ele>
        <time>2020-03-15T10:21:03Z</time>
      </trkpt>
      <trkpt lat="50.756417261436582" lon="4.452417176216841">
        <ele>74.010000000000005</ele>
        <time>2020-03-15T10:21:04Z</time>
      </trkpt>
      <trkpt lat="50.755942929536104" lon="4.452423295006156">
        <ele>76.260000000000005</ele>
        <time>2020-03-15T10:21:15Z</time>
      </trkpt>
      <trkpt lat="50.755918119102716" lon="4.452418014407158">
        <ele>76.230000000000004</ele>
        <time>2020-03-15T10:21:16Z</time>
      </trkpt>
      <trkpt lat="50.755662387236953" lon="4.452359592542052">
        <ele>75.810000000000002</ele>
        <time>2020-03-15T10:21:27Z</time>
      </trkpt>
      <trkpt lat="50.755522409453988" lon="4.452289938926697">
        <ele>76.329999999999998</ele>
        <time>2020-03-15T10:21:36Z</time>
      </trkpt>
      <trkpt lat="50.755270281806588" lon="4.452126491814852">
        <ele>76.569999999999993</ele>
        <time>2020-03-15T10:21:51Z</time>
      </trkpt>
      <trkpt lat="50.754918493330479" lon="4.452013922855258">
        <ele>75.799999999999997</ele>
        <time>2020-03-15T10:22:11Z</time>
      </trkpt>
      <trkpt lat="50.754694528877735" lon="4.452079301699996">
        <ele>75.640000000000001</ele>
        <time>2020-03-15T10:22:35Z</time>
      </trkpt>
      <trkpt lat="50.754566369578242" lon="4.452113416045904">
        <ele>75.329999999999998</ele>
        <time>2020-03-15T10:22:44Z</time>
      </trkpt>
      <trkpt lat="50.754308206960559" lon="4.452112494036555">
        <ele>75.25</ele>
        <time>2020-03-15T10:22:45Z</time>
      </trkpt>
      <trkpt lat="50.753836305812001" lon="4.452498899772763">
        <ele>76.769999999999996</ele>
        <time>2020-03-15T10:23:26Z</time>
      </trkpt>
      <trkpt lat="50.753647293895483" lon="4.452723786234856">
        <ele>76.950000000000003</ele>
        <time>2020-03-15T10:23:41Z</time>
      </trkpt>
      <trkpt lat="50.75345803052187" lon="4.452787656337023">
        <ele>77.090000000000003</ele>
        <time>2020-03-15T10:23:57Z</time>
      </trkpt>
      <trkpt lat="50.753447636961937" lon="4.452796122059226">
        <ele>77</ele>
        <time>2020-03-15T10:23:59Z</time>
      </trkpt>
      <trkpt lat="50.753222331404686" lon="4.452912043780088">
        <ele>77.069999999999993</ele>
        <time>2020-03-15T10:24:19Z</time>
      </trkpt>
      <trkpt lat="50.753019070252776" lon="4.4530806876719">
        <ele>76.390000000000001</ele>
        <time>2020-03-15T10:24:39Z</time>
      </trkpt>
      <trkpt lat="50.752966096624732" lon="4.453537166118622">
        <ele>77.170000000000002</ele>
        <time>2020-03-15T10:24:59Z</time>
      </trkpt>
      <trkpt lat="50.752952769398689" lon="4.453653590753675">
        <ele>77.599999999999994</ele>
        <time>2020-03-15T10:25:07Z</time>
      </trkpt>
      <trkpt lat="50.752674406394362" lon="4.454210484400392">
        <ele>76.010000000000005</ele>
        <time>2020-03-15T10:25:39Z</time>
      </trkpt>
      <trkpt lat="50.752330999821424" lon="4.454718846827745">
        <ele>77.709999999999994</ele>
        <time>2020-03-15T10:26:35Z</time>
      </trkpt>
      <trkpt lat="50.75168676674366" lon="4.454818172380328">
        <ele>79.379999999999995</ele>
        <time>2020-03-15T10:26:57Z</time>
      </trkpt>
      <trkpt lat="50.751473531126976" lon="4.454794283956289">
        <ele>80.569999999999993</ele>
        <time>2020-03-15T10:27:12Z</time>
      </trkpt>
      <trkpt lat="50.751428185030818" lon="4.454773413017392">
        <ele>80.989999999999995</ele>
        <time>2020-03-15T10:27:22Z</time>
      </trkpt>
      <trkpt lat="50.751301534473896" lon="4.454468479380012">
        <ele>82.689999999999998</ele>
        <time>2020-03-15T10:27:41Z</time>
      </trkpt>
      <trkpt lat="50.751162143424153" lon="4.454162707552314">
        <ele>81.909999999999997</ele>
        <time>2020-03-15T10:28:01Z</time>
      </trkpt>
      <trkpt lat="50.750959552824497" lon="4.453794406726956">
        <ele>81.329999999999998</ele>
        <time>2020-03-15T10:28:20Z</time>
      </trkpt>
      <trkpt lat="50.750451106578112" lon="4.452829817309976">
        <ele>76.159999999999997</ele>
        <time>2020-03-15T10:29:42Z</time>
      </trkpt>
      <trkpt lat="50.750442389398813" lon="4.452814646065235">
        <ele>81.640000000000001</ele>
        <time>2020-03-15T10:29:43Z</time>
      </trkpt>
      <trkpt lat="50.750432498753071" lon="4.452798888087273">
        <ele>81.609999999999999</ele>
        <time>2020-03-15T10:29:44Z</time>
      </trkpt>
      <trkpt lat="50.750376004725695" lon="4.452702412381768">
        <ele>81.549999999999997</ele>
        <time>2020-03-15T10:29:47Z</time>
      </trkpt>
      <trkpt lat="50.750052882358432" lon="4.452279377728701">
        <ele>81.219999999999999</ele>
        <time>2020-03-15T10:29:58Z</time>
      </trkpt>
      <trkpt lat="50.749975349754095" lon="4.452214920893312">
        <ele>83.060000000000002</ele>
        <time>2020-03-15T10:30:02Z</time>
      </trkpt>
      <trkpt lat="50.749895805492997" lon="4.452127916738391">
        <ele>80.629999999999995</ele>
        <time>2020-03-15T10:30:05Z</time>
      </trkpt>
      <trkpt lat="50.74968583881855" lon="4.451718712225556">
        <ele>80.400000000000006</ele>
        <time>2020-03-15T10:30:23Z</time>
      </trkpt>
      <trkpt lat="50.749535048380494" lon="4.451366420835257">
        <ele>80.129999999999995</ele>
        <time>2020-03-15T10:30:43Z</time>
      </trkpt>
      <trkpt lat="50.749401859939098" lon="4.451065426692367">
        <ele>79.939999999999998</ele>
        <time>2020-03-15T10:31:03Z</time>
      </trkpt>
      <trkpt lat="50.748642040416598" lon="4.449747791513801">
        <ele>79.760000000000005</ele>
        <time>2020-03-15T10:31:27Z</time>
      </trkpt>
      <trkpt lat="50.748331490904093" lon="4.449349315837026">
        <ele>79.689999999999998</ele>
        <time>2020-03-15T10:31:36Z</time>
      </trkpt>
      <trkpt lat="50.74830642901361" lon="4.449309920892119">
        <ele>79.640000000000001</ele>
        <time>2020-03-15T10:31:38Z</time>
      </trkpt>
      <trkpt lat="50.748165445402265" lon="4.449160639196634">
        <ele>79.569999999999993</ele>
        <time>2020-03-15T10:31:45Z</time>
      </trkpt>
      <trkpt lat="50.747942486777902" lon="4.448908092454076">
        <ele>79.459999999999994</ele>
        <time>2020-03-15T10:31:54Z</time>
      </trkpt>
      <trkpt lat="50.747900996357203" lon="4.448857717216015">
        <ele>79.459999999999994</ele>
        <time>2020-03-15T10:31:55Z</time>
      </trkpt>
      <trkpt lat="50.747865289449692" lon="4.448804408311844">
        <ele>79.450000000000003</ele>
        <time>2020-03-15T10:31:56Z</time>
      </trkpt>
      <trkpt lat="50.747777866199613" lon="4.44866350851953">
        <ele>79.420000000000002</ele>
        <time>2020-03-15T10:31:58Z</time>
      </trkpt>
      <trkpt lat="50.747747188434005" lon="4.448582036420703">
        <ele>79.400000000000006</ele>
        <time>2020-03-15T10:31:59Z</time>
      </trkpt>
      <trkpt lat="50.747711230069399" lon="4.448493355885148">
        <ele>79.379999999999995</ele>
        <time>2020-03-15T10:32:00Z</time>
      </trkpt>
      <trkpt lat="50.747590949758887" lon="4.448170736432076">
        <ele>79.329999999999998</ele>
        <time>2020-03-15T10:32:04Z</time>
      </trkpt>
      <trkpt lat="50.747476536780596" lon="4.447965882718563">
        <ele>79.260000000000005</ele>
        <time>2020-03-15T10:32:07Z</time>
      </trkpt>
      <trkpt lat="50.747448122128844" lon="4.447936043143272">
        <ele>79.25</ele>
        <time>2020-03-15T10:32:08Z</time>
      </trkpt>
      <trkpt lat="50.747426832094789" lon="4.44789245724678">
        <ele>79.239999999999995</ele>
        <time>2020-03-15T10:32:09Z</time>
      </trkpt>
      <trkpt lat="50.747399087995291" lon="4.447833951562643">
        <ele>79.25</ele>
        <time>2020-03-15T10:32:10Z</time>
      </trkpt>
      <trkpt lat="50.747373439371586" lon="4.44777469150722">
        <ele>79.25</ele>
        <time>2020-03-15T10:32:11Z</time>
      </trkpt>
      <trkpt lat="50.747347371652722" lon="4.447721047326922">
        <ele>79.260000000000005</ele>
        <time>2020-03-15T10:32:12Z</time>
      </trkpt>
      <trkpt lat="50.747082335874438" lon="4.44709743373096">
        <ele>79.180000000000007</ele>
        <time>2020-03-15T10:32:22Z</time>
      </trkpt>
      <trkpt lat="50.746769523248076" lon="4.446403495967388">
        <ele>79.109999999999999</ele>
        <time>2020-03-15T10:32:31Z</time>
      </trkpt>
      <trkpt lat="50.74674085713923" lon="4.446324957534671">
        <ele>79.109999999999999</ele>
        <time>2020-03-15T10:32:32Z</time>
      </trkpt>
      <trkpt lat="50.746320588514209" lon="4.445279901847243">
        <ele>79.019999999999996</ele>
        <time>2020-03-15T10:32:45Z</time>
      </trkpt>
      <trkpt lat="50.746257724240422" lon="4.445142270997167">
        <ele>78.989999999999995</ele>
        <time>2020-03-15T10:32:47Z</time>
      </trkpt>
      <trkpt lat="50.746226543560624" lon="4.445083010941744">
        <ele>78.980000000000004</ele>
        <time>2020-03-15T10:32:48Z</time>
      </trkpt>
      <trkpt lat="50.74619603343308" lon="4.445021403953433">
        <ele>79.030000000000001</ele>
        <time>2020-03-15T10:32:49Z</time>
      </trkpt>
      <trkpt lat="50.745941223576665" lon="4.44460591301322">
        <ele>81.209999999999994</ele>
        <time>2020-03-15T10:32:57Z</time>
      </trkpt>
      <trkpt lat="50.745808286592364" lon="4.44427558220923">
        <ele>81.189999999999998</ele>
        <time>2020-03-15T10:33:01Z</time>
      </trkpt>
      <trkpt lat="50.745729496702552" lon="4.444072907790542">
        <ele>81.200000000000003</ele>
        <time>2020-03-15T10:33:03Z</time>
      </trkpt>
      <trkpt lat="50.745603265240788" lon="4.44379236549139">
        <ele>81.170000000000002</ele>
        <time>2020-03-15T10:33:07Z</time>
      </trkpt>
      <trkpt lat="50.74558038264513" lon="4.443706618621945">
        <ele>81.140000000000001</ele>
        <time>2020-03-15T10:33:08Z</time>
      </trkpt>
      <trkpt lat="50.745521206408739" lon="4.443460442125797">
        <ele>81.060000000000002</ele>
        <time>2020-03-15T10:33:11Z</time>
      </trkpt>
      <trkpt lat="50.745486002415419" lon="4.443354578688741">
        <ele>81.030000000000001</ele>
        <time>2020-03-15T10:33:12Z</time>
      </trkpt>
      <trkpt lat="50.745463874191046" lon="4.443300599232316">
        <ele>77.599999999999994</ele>
        <time>2020-03-15T10:33:13Z</time>
      </trkpt>
      <trkpt lat="50.745400339365005" lon="4.443094655871391">
        <ele>80.730000000000004</ele>
        <time>2020-03-15T10:33:19Z</time>
      </trkpt>
      <trkpt lat="50.745167322456837" lon="4.442681763321161">
        <ele>80.730000000000004</ele>
        <time>2020-03-15T10:33:39Z</time>
      </trkpt>
      <trkpt lat="50.744982836768031" lon="4.442197289317846">
        <ele>80.840000000000003</ele>
        <time>2020-03-15T10:34:01Z</time>
      </trkpt>
      <trkpt lat="50.74476582929492" lon="4.441723544150591">
        <ele>81.810000000000002</ele>
        <time>2020-03-15T10:34:23Z</time>
      </trkpt>
      <trkpt lat="50.744576901197433" lon="4.441316518932581">
        <ele>81.930000000000007</ele>
        <time>2020-03-15T10:34:44Z</time>
      </trkpt>
      <trkpt lat="50.744495512917638" lon="4.441209733486176">
        <ele>82.049999999999997</ele>
        <time>2020-03-15T10:34:52Z</time>
      </trkpt>
      <trkpt lat="50.744360899552703" lon="4.441040754318237">
        <ele>82.170000000000002</ele>
        <time>2020-03-15T10:35:05Z</time>
      </trkpt>
      <trkpt lat="50.744211617857218" lon="4.440868757665157">
        <ele>82.230000000000004</ele>
        <time>2020-03-15T10:35:16Z</time>
      </trkpt>
      <trkpt lat="50.744064012542367" lon="4.440764989703894">
        <ele>82.319999999999993</ele>
        <time>2020-03-15T10:35:27Z</time>
      </trkpt>
      <trkpt lat="50.7438447419554" lon="4.440545216202736">
        <ele>82.390000000000001</ele>
        <time>2020-03-15T10:35:40Z</time>
      </trkpt>
      <trkpt lat="50.743828397244215" lon="4.440526692196727">
        <ele>82.390000000000001</ele>
        <time>2020-03-15T10:35:41Z</time>
      </trkpt>
      <trkpt lat="50.743811801075935" lon="4.440520741045475">
        <ele>82.370000000000005</ele>
        <time>2020-03-15T10:35:42Z</time>
      </trkpt>
      <trkpt lat="50.743790846318007" lon="4.440510515123606">
        <ele>82.390000000000001</ele>
        <time>2020-03-15T10:35:43Z</time>
      </trkpt>
      <trkpt lat="50.743766622617841" lon="4.440496349707246">
        <ele>82.379999999999995</ele>
        <time>2020-03-15T10:35:44Z</time>
      </trkpt>
      <trkpt lat="50.743749272078276" lon="4.440482184290886">
        <ele>82.390000000000001</ele>
        <time>2020-03-15T10:35:45Z</time>
      </trkpt>
      <trkpt lat="50.743646007031202" lon="4.440425606444478">
        <ele>80.150000000000006</ele>
        <time>2020-03-15T10:35:51Z</time>
      </trkpt>
      <trkpt lat="50.743635110557079" lon="4.440413201227784">
        <ele>80.159999999999997</ele>
        <time>2020-03-15T10:35:52Z</time>
      </trkpt>
      <trkpt lat="50.743619604036212" lon="4.440399035811424">
        <ele>80.159999999999997</ele>
        <time>2020-03-15T10:35:53Z</time>
      </trkpt>
      <trkpt lat="50.743607450276613" lon="4.440391743555665">
        <ele>80.170000000000002</ele>
        <time>2020-03-15T10:35:54Z</time>
      </trkpt>
      <trkpt lat="50.743583729490638" lon="4.440387301146984">
        <ele>80.189999999999998</ele>
        <time>2020-03-15T10:35:56Z</time>
      </trkpt>
      <trkpt lat="50.743421874940395" lon="4.440270457416773">
        <ele>80.260000000000005</ele>
        <time>2020-03-15T10:36:06Z</time>
      </trkpt>
      <trkpt lat="50.743375020101666" lon="4.440228044986725">
        <ele>80.260000000000005</ele>
        <time>2020-03-15T10:36:09Z</time>
      </trkpt>
      <trkpt lat="50.743138482794166" lon="4.440005756914616">
        <ele>80.340000000000003</ele>
        <time>2020-03-15T10:36:25Z</time>
      </trkpt>
      <trkpt lat="50.742920553311706" lon="4.439837951213121">
        <ele>80.469999999999999</ele>
        <time>2020-03-15T10:36:41Z</time>
      </trkpt>
      <trkpt lat="50.742778144776821" lon="4.439756227657199">
        <ele>79.700000000000003</ele>
        <time>2020-03-15T10:36:52Z</time>
      </trkpt>
      <trkpt lat="50.742602124810219" lon="4.439658997580409">
        <ele>79.829999999999998</ele>
        <time>2020-03-15T10:37:05Z</time>
      </trkpt>
      <trkpt lat="50.742403222247958" lon="4.439588841050863">
        <ele>79.150000000000006</ele>
        <time>2020-03-15T10:37:17Z</time>
      </trkpt>
      <trkpt lat="50.742221251130104" lon="4.439533771947026">
        <ele>79.299999999999997</ele>
        <time>2020-03-15T10:37:30Z</time>
      </trkpt>
      <trkpt lat="50.742126870900393" lon="4.439571155235171">
        <ele>78.599999999999994</ele>
        <time>2020-03-15T10:37:42Z</time>
      </trkpt>
      <trkpt lat="50.741277951747179" lon="4.439659416675568">
        <ele>75.709999999999994</ele>
        <time>2020-03-15T10:38:42Z</time>
      </trkpt>
      <trkpt lat="50.741063375025988" lon="4.439725717529655">
        <ele>75.010000000000005</ele>
        <time>2020-03-15T10:38:56Z</time>
      </trkpt>
      <trkpt lat="50.740987183526158" lon="4.43970987573266">
        <ele>75.069999999999993</ele>
        <time>2020-03-15T10:39:00Z</time>
      </trkpt>
      <trkpt lat="50.740727009251714" lon="4.439566629007459">
        <ele>74.379999999999995</ele>
        <time>2020-03-15T10:39:22Z</time>
      </trkpt>
      <trkpt lat="50.740506313741207" lon="4.439521785825491">
        <ele>72.760000000000005</ele>
        <time>2020-03-15T10:39:38Z</time>
      </trkpt>
      <trkpt lat="50.740473289042711" lon="4.439503345638514">
        <ele>72.790000000000006</ele>
        <time>2020-03-15T10:39:40Z</time>
      </trkpt>
      <trkpt lat="50.740215377882123" lon="4.439467135816813">
        <ele>70.549999999999997</ele>
        <time>2020-03-15T10:39:57Z</time>
      </trkpt>
      <trkpt lat="50.740030305460095" lon="4.439356494694948">
        <ele>69.75</ele>
        <time>2020-03-15T10:40:13Z</time>
      </trkpt>
      <trkpt lat="50.739763928577304" lon="4.439236465841532">
        <ele>68.310000000000002</ele>
        <time>2020-03-15T10:40:34Z</time>
      </trkpt>
      <trkpt lat="50.739518590271473" lon="4.439140744507313">
        <ele>65.930000000000007</ele>
        <time>2020-03-15T10:40:52Z</time>
      </trkpt>
      <trkpt lat="50.739266462624073" lon="4.439035886898637">
        <ele>62.43</ele>
        <time>2020-03-15T10:41:10Z</time>
      </trkpt>
      <trkpt lat="50.739023303613067" lon="4.438898842781782">
        <ele>61.670000000000002</ele>
        <time>2020-03-15T10:41:27Z</time>
      </trkpt>
      <trkpt lat="50.738887013867497" lon="4.438854502514005">
        <ele>59.560000000000002</ele>
        <time>2020-03-15T10:41:35Z</time>
      </trkpt>
      <trkpt lat="50.738708563148975" lon="4.438778478652239">
        <ele>58.479999999999997</ele>
        <time>2020-03-15T10:41:49Z</time>
      </trkpt>
      <trkpt lat="50.738512007519603" lon="4.438689798116684">
        <ele>55.259999999999998</ele>
        <time>2020-03-15T10:42:08Z</time>
      </trkpt>
      <trkpt lat="50.738503374159336" lon="4.43853959441185">
        <ele>55.350000000000001</ele>
        <time>2020-03-15T10:42:21Z</time>
      </trkpt>
      <trkpt lat="50.738610327243805" lon="4.438376063480973">
        <ele>55.409999999999997</ele>
        <time>2020-03-15T10:42:35Z</time>
      </trkpt>
      <trkpt lat="50.738636897876859" lon="4.438205324113369">
        <ele>54.469999999999999</ele>
        <time>2020-03-15T10:42:46Z</time>
      </trkpt>
      <trkpt lat="50.738631701096892" lon="4.438154697418213">
        <ele>53.57</ele>
        <time>2020-03-15T10:42:49Z</time>
      </trkpt>
      <trkpt lat="50.73857344686985" lon="4.437603922560811">
        <ele>53.049999999999997</ele>
        <time>2020-03-15T10:43:11Z</time>
      </trkpt>
      <trkpt lat="50.738492645323277" lon="4.437172170728445">
        <ele>55.469999999999999</ele>
        <time>2020-03-15T10:43:26Z</time>
      </trkpt>
      <trkpt lat="50.738699175417423" lon="4.436814598739147">
        <ele>59.920000000000002</ele>
        <time>2020-03-15T10:43:40Z</time>
      </trkpt>
      <trkpt lat="50.738813001662493" lon="4.436512431129813">
        <ele>62.450000000000003</ele>
        <time>2020-03-15T10:43:49Z</time>
      </trkpt>
      <trkpt lat="50.738809229806066" lon="4.436453338712454">
        <ele>62.420000000000002</ele>
        <time>2020-03-15T10:43:50Z</time>
      </trkpt>
      <trkpt lat="50.73881140910089" lon="4.436378069221973">
        <ele>62.420000000000002</ele>
        <time>2020-03-15T10:43:51Z</time>
      </trkpt>
      <trkpt lat="50.738825909793377" lon="4.436321575194597">
        <ele>63.439999999999998</ele>
        <time>2020-03-15T10:43:52Z</time>
      </trkpt>
      <trkpt lat="50.738832782953978" lon="4.436283437535167">
        <ele>63.450000000000003</ele>
        <time>2020-03-15T10:43:53Z</time>
      </trkpt>
      <trkpt lat="50.738834207877517" lon="4.436242952942848">
        <ele>63.439999999999998</ele>
        <time>2020-03-15T10:43:54Z</time>
      </trkpt>
      <trkpt lat="50.738835381343961" lon="4.436203055083752">
        <ele>63.439999999999998</ele>
        <time>2020-03-15T10:43:55Z</time>
      </trkpt>
      <trkpt lat="50.738828759640455" lon="4.436108423396945">
        <ele>64.299999999999997</ele>
        <time>2020-03-15T10:43:56Z</time>
      </trkpt>
      <trkpt lat="50.738829681649804" lon="4.436065088957548">
        <ele>64.310000000000002</ele>
        <time>2020-03-15T10:43:57Z</time>
      </trkpt>
      <trkpt lat="50.73883093893528" lon="4.436024939641357">
        <ele>65.230000000000004</ele>
        <time>2020-03-15T10:43:58Z</time>
      </trkpt>
      <trkpt lat="50.738834710791707" lon="4.435971714556217">
        <ele>65.209999999999994</ele>
        <time>2020-03-15T10:43:59Z</time>
      </trkpt>
      <trkpt lat="50.738877961412072" lon="4.43570164963603">
        <ele>66.079999999999998</ele>
        <time>2020-03-15T10:44:04Z</time>
      </trkpt>
      <trkpt lat="50.738867484033108" lon="4.435642641037703">
        <ele>66.060000000000002</ele>
        <time>2020-03-15T10:44:05Z</time>
      </trkpt>
      <trkpt lat="50.738862287253141" lon="4.435545913875103">
        <ele>66.049999999999997</ele>
        <time>2020-03-15T10:44:06Z</time>
      </trkpt>
      <trkpt lat="50.7388333696872" lon="4.434770755469799">
        <ele>66.909999999999997</ele>
        <time>2020-03-15T10:44:16Z</time>
      </trkpt>
      <trkpt lat="50.738487532362342" lon="4.433324038982391">
        <ele>68.579999999999998</ele>
        <time>2020-03-15T10:44:43Z</time>
      </trkpt>
      <trkpt lat="50.738429026678205" lon="4.43287736736238">
        <ele>64.780000000000001</ele>
        <time>2020-03-15T10:44:58Z</time>
      </trkpt>
      <trkpt lat="50.738440677523613" lon="4.432853730395436">
        <ele>71.549999999999997</ele>
        <time>2020-03-15T10:44:59Z</time>
      </trkpt>
      <trkpt lat="50.738443695008755" lon="4.432830009609461">
        <ele>71.549999999999997</ele>
        <time>2020-03-15T10:45:00Z</time>
      </trkpt>
      <trkpt lat="50.738384015858173" lon="4.432616690173745">
        <ele>71.620000000000005</ele>
        <time>2020-03-15T10:45:10Z</time>
      </trkpt>
      <trkpt lat="50.738264070823789" lon="4.432155517861247">
        <ele>73.620000000000005</ele>
        <time>2020-03-15T10:45:31Z</time>
      </trkpt>
      <trkpt lat="50.738180419430137" lon="4.431932978332043">
        <ele>73.640000000000001</ele>
        <time>2020-03-15T10:45:40Z</time>
      </trkpt>
      <trkpt lat="50.738169271498919" lon="4.431870952248573">
        <ele>73.650000000000006</ele>
        <time>2020-03-15T10:45:41Z</time>
      </trkpt>
      <trkpt lat="50.738155022263527" lon="4.431819068267942">
        <ele>73.659999999999997</ele>
        <time>2020-03-15T10:45:42Z</time>
      </trkpt>
      <trkpt lat="50.738142868503928" lon="4.431792916730046">
        <ele>73.659999999999997</ele>
        <time>2020-03-15T10:45:43Z</time>
      </trkpt>
      <trkpt lat="50.738123087212443" lon="4.431759724393487">
        <ele>73.670000000000002</ele>
        <time>2020-03-15T10:45:44Z</time>
      </trkpt>
      <trkpt lat="50.738108586519957" lon="4.431734997779131">
        <ele>73.670000000000002</ele>
        <time>2020-03-15T10:45:45Z</time>
      </trkpt>
      <trkpt lat="50.738093834370375" lon="4.431711779907346">
        <ele>73.680000000000007</ele>
        <time>2020-03-15T10:45:46Z</time>
      </trkpt>
      <trkpt lat="50.738087045028806" lon="4.431681940332055">
        <ele>73.680000000000007</ele>
        <time>2020-03-15T10:45:47Z</time>
      </trkpt>
      <trkpt lat="50.738074136897922" lon="4.431620500981808">
        <ele>74.609999999999999</ele>
        <time>2020-03-15T10:45:48Z</time>
      </trkpt>
      <trkpt lat="50.738069359213114" lon="4.431592337787151">
        <ele>74.620000000000005</ele>
        <time>2020-03-15T10:45:49Z</time>
      </trkpt>
      <trkpt lat="50.738059803843498" lon="4.43155906163156">
        <ele>74.620000000000005</ele>
        <time>2020-03-15T10:45:50Z</time>
      </trkpt>
      <trkpt lat="50.738041615113616" lon="4.431514469906688">
        <ele>74.629999999999995</ele>
        <time>2020-03-15T10:45:51Z</time>
      </trkpt>
      <trkpt lat="50.738030718639493" lon="4.431474069133401">
        <ele>74.650000000000006</ele>
        <time>2020-03-15T10:45:52Z</time>
      </trkpt>
      <trkpt lat="50.73802275583148" lon="4.431442636996508">
        <ele>74.670000000000002</ele>
        <time>2020-03-15T10:45:53Z</time>
      </trkpt>
      <trkpt lat="50.738012278452516" lon="4.431413384154439">
        <ele>75.450000000000003</ele>
        <time>2020-03-15T10:45:54Z</time>
      </trkpt>
      <trkpt lat="50.737987048923969" lon="4.431373151019216">
        <ele>75.459999999999994</ele>
        <time>2020-03-15T10:45:56Z</time>
      </trkpt>
      <trkpt lat="50.737783871591091" lon="4.430902758613229">
        <ele>76.319999999999993</ele>
        <time>2020-03-15T10:46:12Z</time>
      </trkpt>
      <trkpt lat="50.737543813884258" lon="4.430460445582867">
        <ele>77.200000000000003</ele>
        <time>2020-03-15T10:46:28Z</time>
      </trkpt>
      <trkpt lat="50.737511124461889" lon="4.430462624877691">
        <ele>77.189999999999998</ele>
        <time>2020-03-15T10:46:29Z</time>
      </trkpt>
      <trkpt lat="50.737212477251887" lon="4.430153500288725">
        <ele>78.829999999999998</ele>
        <time>2020-03-15T10:46:40Z</time>
      </trkpt>
      <trkpt lat="50.736855743452907" lon="4.429738596081734">
        <ele>80.769999999999996</ele>
        <time>2020-03-15T10:46:50Z</time>
      </trkpt>
      <trkpt lat="50.736820204183459" lon="4.429706493392587">
        <ele>80.760000000000005</ele>
        <time>2020-03-15T10:46:52Z</time>
      </trkpt>
      <trkpt lat="50.736806290224195" lon="4.429677911102772">
        <ele>80.75</ele>
        <time>2020-03-15T10:46:53Z</time>
      </trkpt>
      <trkpt lat="50.736797573044896" lon="4.429637175053358">
        <ele>80.730000000000004</ele>
        <time>2020-03-15T10:46:54Z</time>
      </trkpt>
      <trkpt lat="50.736781395971775" lon="4.429565509781241">
        <ele>80.730000000000004</ele>
        <time>2020-03-15T10:46:55Z</time>
      </trkpt>
      <trkpt lat="50.736761363223195" lon="4.429507674649358">
        <ele>80.700000000000003</ele>
        <time>2020-03-15T10:46:56Z</time>
      </trkpt>
      <trkpt lat="50.736691458150744" lon="4.429131243377924">
        <ele>80.629999999999995</ele>
        <time>2020-03-15T10:47:02Z</time>
      </trkpt>
      <trkpt lat="50.736496830359101" lon="4.427626021206379">
        <ele>81.959999999999994</ele>
        <time>2020-03-15T10:47:23Z</time>
      </trkpt>
      <trkpt lat="50.736483251675963" lon="4.427260486409068">
        <ele>81.920000000000002</ele>
        <time>2020-03-15T10:47:28Z</time>
      </trkpt>
      <trkpt lat="50.736435391008854" lon="4.426983213052154">
        <ele>81.890000000000001</ele>
        <time>2020-03-15T10:47:31Z</time>
      </trkpt>
      <trkpt lat="50.736434301361442" lon="4.426821190863848">
        <ele>82.790000000000006</ele>
        <time>2020-03-15T10:47:32Z</time>
      </trkpt>
      <trkpt lat="50.736280074343085" lon="4.425927847623825">
        <ele>82.709999999999994</ele>
        <time>2020-03-15T10:47:43Z</time>
      </trkpt>
      <trkpt lat="50.736143449321389" lon="4.425310185179114">
        <ele>83.609999999999999</ele>
        <time>2020-03-15T10:47:54Z</time>
      </trkpt>
      <trkpt lat="50.73604378849268" lon="4.424695456400514">
        <ele>84.530000000000001</ele>
        <time>2020-03-15T10:48:10Z</time>
      </trkpt>
      <trkpt lat="50.736041776835918" lon="4.424486076459289">
        <ele>84.620000000000005</ele>
        <time>2020-03-15T10:48:26Z</time>
      </trkpt>
      <trkpt lat="50.736221065744758" lon="4.424594370648265">
        <ele>84.75</ele>
        <time>2020-03-15T10:48:45Z</time>
      </trkpt>
      <trkpt lat="50.736372862011194" lon="4.424689672887325">
        <ele>84.829999999999998</ele>
        <time>2020-03-15T10:48:56Z</time>
      </trkpt>
      <trkpt lat="50.73638535104692" lon="4.424695707857609">
        <ele>84.829999999999998</ele>
        <time>2020-03-15T10:48:57Z</time>
      </trkpt>
      <trkpt lat="50.736644519492984" lon="4.424774162471294">
        <ele>85.859999999999999</ele>
        <time>2020-03-15T10:49:18Z</time>
      </trkpt>
      <trkpt lat="50.736845852807164" lon="4.424780867993832">
        <ele>86.030000000000001</ele>
        <time>2020-03-15T10:49:35Z</time>
      </trkpt>
      <trkpt lat="50.737017430365086" lon="4.424817245453596">
        <ele>86.099999999999994</ele>
        <time>2020-03-15T10:49:44Z</time>
      </trkpt>
      <trkpt lat="50.73721457272768" lon="4.424847168847919">
        <ele>83.989999999999995</ele>
        <time>2020-03-15T10:50:00Z</time>
      </trkpt>
      <trkpt lat="50.737451612949371" lon="4.424937441945076">
        <ele>82.629999999999995</ele>
        <time>2020-03-15T10:50:19Z</time>
      </trkpt>
      <trkpt lat="50.737667446956038" lon="4.425091249868274">
        <ele>81.150000000000006</ele>
        <time>2020-03-15T10:50:39Z</time>
      </trkpt>
      <trkpt lat="50.737938433885574" lon="4.425229215994477">
        <ele>78.890000000000001</ele>
        <time>2020-03-15T10:50:59Z</time>
      </trkpt>
      <trkpt lat="50.738047063350677" lon="4.425273556262255">
        <ele>77.299999999999997</ele>
        <time>2020-03-15T10:51:09Z</time>
      </trkpt>
      <trkpt lat="50.738257365301251" lon="4.42538620904088">
        <ele>74.260000000000005</ele>
        <time>2020-03-15T10:51:26Z</time>
      </trkpt>
      <trkpt lat="50.738358870148659" lon="4.42548243328929">
        <ele>73.359999999999999</ele>
        <time>2020-03-15T10:51:32Z</time>
      </trkpt>
      <trkpt lat="50.73837848380208" lon="4.425495006144047">
        <ele>73.370000000000005</ele>
        <time>2020-03-15T10:51:33Z</time>
      </trkpt>
      <trkpt lat="50.738400025293231" lon="4.425499867647886">
        <ele>73.379999999999995</ele>
        <time>2020-03-15T10:51:34Z</time>
      </trkpt>
      <trkpt lat="50.738423243165016" lon="4.42550933919847">
        <ele>73.379999999999995</ele>
        <time>2020-03-15T10:51:35Z</time>
      </trkpt>
      <trkpt lat="50.738614853471518" lon="4.42568376660347">
        <ele>70.930000000000007</ele>
        <time>2020-03-15T10:51:50Z</time>
      </trkpt>
      <trkpt lat="50.73874150402844" lon="4.425829024985433">
        <ele>71.010000000000005</ele>
        <time>2020-03-15T10:52:02Z</time>
      </trkpt>
      <trkpt lat="50.738762291148305" lon="4.425826342776418">
        <ele>71.010000000000005</ele>
        <time>2020-03-15T10:52:03Z</time>
      </trkpt>
      <trkpt lat="50.738775869831443" lon="4.425818882882595">
        <ele>71.019999999999996</ele>
        <time>2020-03-15T10:52:04Z</time>
      </trkpt>
      <trkpt lat="50.738961528986692" lon="4.42554940469563">
        <ele>71.099999999999994</ele>
        <time>2020-03-15T10:52:20Z</time>
      </trkpt>
      <trkpt lat="50.739031098783016" lon="4.425334241241217">
        <ele>71.159999999999997</ele>
        <time>2020-03-15T10:52:31Z</time>
      </trkpt>
      <trkpt lat="50.739147691056132" lon="4.424958229064941">
        <ele>71.200000000000003</ele>
        <time>2020-03-15T10:52:48Z</time>
      </trkpt>
      <trkpt lat="50.739193540066481" lon="4.424901315942407">
        <ele>71.200000000000003</ele>
        <time>2020-03-15T10:52:49Z</time>
      </trkpt>
      <trkpt lat="50.739293871447444" lon="4.424763936549425">
        <ele>71.230000000000004</ele>
        <time>2020-03-15T10:52:56Z</time>
      </trkpt>
      <trkpt lat="50.739476513117552" lon="4.424667293205857">
        <ele>71.319999999999993</ele>
        <time>2020-03-15T10:53:13Z</time>
      </trkpt>
      <trkpt lat="50.739552453160286" lon="4.424627646803856">
        <ele>71.370000000000005</ele>
        <time>2020-03-15T10:53:19Z</time>
      </trkpt>
      <trkpt lat="50.739572821184993" lon="4.424609877169132">
        <ele>73.939999999999998</ele>
        <time>2020-03-15T10:53:20Z</time>
      </trkpt>
      <trkpt lat="50.739577515050769" lon="4.424607027322054">
        <ele>73.950000000000003</ele>
        <time>2020-03-15T10:53:21Z</time>
      </trkpt>
      <trkpt lat="50.739602912217379" lon="4.424594203010202">
        <ele>74.739999999999995</ele>
        <time>2020-03-15T10:53:25Z</time>
      </trkpt>
      <trkpt lat="50.739708272740245" lon="4.424489429220557">
        <ele>75.629999999999995</ele>
        <time>2020-03-15T10:53:35Z</time>
      </trkpt>
      <trkpt lat="50.739929638803005" lon="4.424181561917067">
        <ele>78.319999999999993</ele>
        <time>2020-03-15T10:53:55Z</time>
      </trkpt>
      <trkpt lat="50.740125523880124" lon="4.423673031851649">
        <ele>80.780000000000001</ele>
        <time>2020-03-15T10:54:19Z</time>
      </trkpt>
      <trkpt lat="50.74023574590683" lon="4.423342030495405">
        <ele>80.680000000000007</ele>
        <time>2020-03-15T10:54:36Z</time>
      </trkpt>
      <trkpt lat="50.740376645699143" lon="4.422780526801944">
        <ele>81.329999999999998</ele>
        <time>2020-03-15T10:54:59Z</time>
      </trkpt>
      <trkpt lat="50.740548809990287" lon="4.422262273728848">
        <ele>83.069999999999993</ele>
        <time>2020-03-15T10:55:22Z</time>
      </trkpt>
      <trkpt lat="50.740715442225337" lon="4.421892547979951">
        <ele>84.569999999999993</ele>
        <time>2020-03-15T10:55:43Z</time>
      </trkpt>
      <trkpt lat="50.740847624838352" lon="4.421371361240745">
        <ele>86.5</ele>
        <time>2020-03-15T10:56:07Z</time>
      </trkpt>
      <trkpt lat="50.740954158827662" lon="4.42099928855896">
        <ele>87.269999999999996</ele>
        <time>2020-03-15T10:56:28Z</time>
      </trkpt>
      <trkpt lat="50.741065051406622" lon="4.420453291386366">
        <ele>87.269999999999996</ele>
        <time>2020-03-15T10:56:50Z</time>
      </trkpt>
      <trkpt lat="50.741225145757198" lon="4.419998154044151">
        <ele>89.939999999999998</ele>
        <time>2020-03-15T10:57:10Z</time>
      </trkpt>
      <trkpt lat="50.741375181823969" lon="4.419631026685238">
        <ele>91.530000000000001</ele>
        <time>2020-03-15T10:57:29Z</time>
      </trkpt>
      <trkpt lat="50.741510633379221" lon="4.419339252635837">
        <ele>93.099999999999994</ele>
        <time>2020-03-15T10:57:45Z</time>
      </trkpt>
      <trkpt lat="50.741554722189903" lon="4.418980926275253">
        <ele>94.049999999999997</ele>
        <time>2020-03-15T10:58:04Z</time>
      </trkpt>
      <trkpt lat="50.741689251735806" lon="4.418515730649233">
        <ele>94.760000000000005</ele>
        <time>2020-03-15T10:58:25Z</time>
      </trkpt>
      <trkpt lat="50.741707189008594" lon="4.41843057051301">
        <ele>94.760000000000005</ele>
        <time>2020-03-15T10:58:30Z</time>
      </trkpt>
      <trkpt lat="50.741840293630958" lon="4.418179783970118">
        <ele>95.569999999999993</ele>
        <time>2020-03-15T10:58:50Z</time>
      </trkpt>
      <trkpt lat="50.741904582828283" lon="4.418161427602172">
        <ele>95.560000000000002</ele>
        <time>2020-03-15T10:58:58Z</time>
      </trkpt>
      <trkpt lat="50.741913551464677" lon="4.418173748999834">
        <ele>95.560000000000002</ele>
        <time>2020-03-15T10:58:59Z</time>
      </trkpt>
      <trkpt lat="50.741961412131786" lon="4.418228985741735">
        <ele>95.549999999999997</ele>
        <time>2020-03-15T10:59:14Z</time>
      </trkpt>
      <trkpt lat="50.742030646651983" lon="4.418277852237225">
        <ele>95.540000000000006</ele>
        <time>2020-03-15T10:59:18Z</time>
      </trkpt>
      <trkpt lat="50.742289312183857" lon="4.418555963784456">
        <ele>95.530000000000001</ele>
        <time>2020-03-15T10:59:26Z</time>
      </trkpt>
      <trkpt lat="50.742430547252297" lon="4.418812366202474">
        <ele>95.519999999999996</ele>
        <time>2020-03-15T10:59:31Z</time>
      </trkpt>
      <trkpt lat="50.742462147027254" lon="4.418844971805811">
        <ele>95.530000000000001</ele>
        <time>2020-03-15T10:59:32Z</time>
      </trkpt>
      <trkpt lat="50.742494249716401" lon="4.418881852179766">
        <ele>95.530000000000001</ele>
        <time>2020-03-15T10:59:33Z</time>
      </trkpt>
      <trkpt lat="50.742533225566149" lon="4.41892066039145">
        <ele>95.530000000000001</ele>
        <time>2020-03-15T10:59:34Z</time>
      </trkpt>
      <trkpt lat="50.742576979100704" lon="4.418966174125671">
        <ele>95.519999999999996</ele>
        <time>2020-03-15T10:59:35Z</time>
      </trkpt>
      <trkpt lat="50.742622073739767" lon="4.418997438624501">
        <ele>93.099999999999994</ele>
        <time>2020-03-15T10:59:36Z</time>
      </trkpt>
      <trkpt lat="50.742668006569147" lon="4.419030547142029">
        <ele>93.090000000000003</ele>
        <time>2020-03-15T10:59:37Z</time>
      </trkpt>
      <trkpt lat="50.74295693077147" lon="4.41945324651897">
        <ele>92.099999999999994</ele>
        <time>2020-03-15T10:59:46Z</time>
      </trkpt>
      <trkpt lat="50.74311132542789" lon="4.419709481298924">
        <ele>91.189999999999998</ele>
        <time>2020-03-15T10:59:52Z</time>
      </trkpt>
      <trkpt lat="50.743154743686318" lon="4.419756839051843">
        <ele>91.189999999999998</ele>
        <time>2020-03-15T10:59:53Z</time>
      </trkpt>
      <trkpt lat="50.743295392021537" lon="4.419934535399079">
        <ele>91.159999999999997</ele>
        <time>2020-03-15T10:59:57Z</time>
      </trkpt>
      <trkpt lat="50.743339061737061" lon="4.419983401894569">
        <ele>91.150000000000006</ele>
        <time>2020-03-15T10:59:58Z</time>
      </trkpt>
      <trkpt lat="50.74337761849165" lon="4.420014247298241">
        <ele>91.140000000000001</ele>
        <time>2020-03-15T10:59:59Z</time>
      </trkpt>
      <trkpt lat="50.743424389511347" lon="4.420037716627121">
        <ele>91.140000000000001</ele>
        <time>2020-03-15T11:00:00Z</time>
      </trkpt>
      <trkpt lat="50.743601247668266" lon="4.420297387987375">
        <ele>90.090000000000003</ele>
        <time>2020-03-15T11:00:05Z</time>
      </trkpt>
      <trkpt lat="50.743609294295311" lon="4.420352540910244">
        <ele>90.079999999999998</ele>
        <time>2020-03-15T11:00:06Z</time>
      </trkpt>
      <trkpt lat="50.743668470531702" lon="4.420437114313245">
        <ele>88.980000000000004</ele>
        <time>2020-03-15T11:00:08Z</time>
      </trkpt>
      <trkpt lat="50.743724713101983" lon="4.420498134568334">
        <ele>88.969999999999999</ele>
        <time>2020-03-15T11:00:09Z</time>
      </trkpt>
      <trkpt lat="50.743801826611161" lon="4.420590503141284">
        <ele>88.109999999999999</ele>
        <time>2020-03-15T11:00:11Z</time>
      </trkpt>
      <trkpt lat="50.74383351020515" lon="4.420656049624085">
        <ele>87.189999999999998</ele>
        <time>2020-03-15T11:00:12Z</time>
      </trkpt>
      <trkpt lat="50.74387215077877" lon="4.420732911676168">
        <ele>87.150000000000006</ele>
        <time>2020-03-15T11:00:13Z</time>
      </trkpt>
      <trkpt lat="50.744055965915322" lon="4.420989314094186">
        <ele>87.129999999999995</ele>
        <time>2020-03-15T11:00:17Z</time>
      </trkpt>
      <trkpt lat="50.744097121059895" lon="4.421039270237088">
        <ele>87.129999999999995</ele>
        <time>2020-03-15T11:00:18Z</time>
      </trkpt>
      <trkpt lat="50.744423763826489" lon="4.421282764524221">
        <ele>87.019999999999996</ele>
        <time>2020-03-15T11:00:24Z</time>
      </trkpt>
      <trkpt lat="50.744454273954034" lon="4.42133498378098">
        <ele>87</ele>
        <time>2020-03-15T11:00:25Z</time>
      </trkpt>
      <trkpt lat="50.744529040530324" lon="4.421404637396336">
        <ele>86.989999999999995</ele>
        <time>2020-03-15T11:00:26Z</time>
      </trkpt>
      <trkpt lat="50.744609590619802" lon="4.421497508883476">
        <ele>86.980000000000004</ele>
        <time>2020-03-15T11:00:27Z</time>
      </trkpt>
      <trkpt lat="50.744646890088916" lon="4.421558193862438">
        <ele>86.959999999999994</ele>
        <time>2020-03-15T11:00:28Z</time>
      </trkpt>
      <trkpt lat="50.744676142930984" lon="4.421622063964605">
        <ele>86.950000000000003</ele>
        <time>2020-03-15T11:00:29Z</time>
      </trkpt>
      <trkpt lat="50.744810337200761" lon="4.421769920736551">
        <ele>86.930000000000007</ele>
        <time>2020-03-15T11:00:30Z</time>
      </trkpt>
      <trkpt lat="50.744852665811777" lon="4.421854913234711">
        <ele>86.920000000000002</ele>
        <time>2020-03-15T11:00:31Z</time>
      </trkpt>
      <trkpt lat="50.744876554235816" lon="4.421940995380282">
        <ele>86.900000000000006</ele>
        <time>2020-03-15T11:00:32Z</time>
      </trkpt>
      <trkpt lat="50.744904046878219" lon="4.422019449993968">
        <ele>86.890000000000001</ele>
        <time>2020-03-15T11:00:33Z</time>
      </trkpt>
      <trkpt lat="50.745194144546986" lon="4.422603333368897">
        <ele>86.769999999999996</ele>
        <time>2020-03-15T11:00:41Z</time>
      </trkpt>
      <trkpt lat="50.745235299691558" lon="4.422662341967225">
        <ele>86.760000000000005</ele>
        <time>2020-03-15T11:00:42Z</time>
      </trkpt>
      <trkpt lat="50.745273437350988" lon="4.422719674184918">
        <ele>85.930000000000007</ele>
        <time>2020-03-15T11:00:43Z</time>
      </trkpt>
      <trkpt lat="50.745305037125945" lon="4.422784885391593">
        <ele>85.930000000000007</ele>
        <time>2020-03-15T11:00:44Z</time>
      </trkpt>
      <trkpt lat="50.745343845337629" lon="4.422833500429988">
        <ele>84.879999999999995</ele>
        <time>2020-03-15T11:00:45Z</time>
      </trkpt>
      <trkpt lat="50.745390113443136" lon="4.422877170145512">
        <ele>84.879999999999995</ele>
        <time>2020-03-15T11:00:46Z</time>
      </trkpt>
      <trkpt lat="50.745432442054152" lon="4.422917068004608">
        <ele>84.870000000000005</ele>
        <time>2020-03-15T11:00:47Z</time>
      </trkpt>
      <trkpt lat="50.7455163449049" lon="4.42300658673048">
        <ele>84.829999999999998</ele>
        <time>2020-03-15T11:00:49Z</time>
      </trkpt>
      <trkpt lat="50.745602007955313" lon="4.423106079921126">
        <ele>84.799999999999997</ele>
        <time>2020-03-15T11:00:51Z</time>
      </trkpt>
      <trkpt lat="50.745642492547631" lon="4.423157963901758">
        <ele>84.790000000000006</ele>
        <time>2020-03-15T11:00:52Z</time>
      </trkpt>
      <trkpt lat="50.745719186961651" lon="4.423273969441652">
        <ele>84.769999999999996</ele>
        <time>2020-03-15T11:00:54Z</time>
      </trkpt>
      <trkpt lat="50.74576654471457" lon="4.423330798745155">
        <ele>84.739999999999995</ele>
        <time>2020-03-15T11:00:55Z</time>
      </trkpt>
      <trkpt lat="50.746006602421403" lon="4.423567168414593">
        <ele>84.670000000000002</ele>
        <time>2020-03-15T11:01:01Z</time>
      </trkpt>
      <trkpt lat="50.746036441996694" lon="4.423618381842971">
        <ele>84.650000000000006</ele>
        <time>2020-03-15T11:01:02Z</time>
      </trkpt>
      <trkpt lat="50.746069885790348" lon="4.423671690747142">
        <ele>84.640000000000001</ele>
        <time>2020-03-15T11:01:03Z</time>
      </trkpt>
      <trkpt lat="50.746100898832083" lon="4.423726256936789">
        <ele>84.620000000000005</ele>
        <time>2020-03-15T11:01:04Z</time>
      </trkpt>
      <trkpt lat="50.746145071461797" lon="4.423794317990542">
        <ele>84.599999999999994</ele>
        <time>2020-03-15T11:01:05Z</time>
      </trkpt>
      <trkpt lat="50.746182119473815" lon="4.423875035718083">
        <ele>84.590000000000003</ele>
        <time>2020-03-15T11:01:06Z</time>
      </trkpt>
      <trkpt lat="50.746210282668471" lon="4.423938654363155">
        <ele>84.569999999999993</ele>
        <time>2020-03-15T11:01:07Z</time>
      </trkpt>
      <trkpt lat="50.746237607672811" lon="4.423985676839948">
        <ele>83.459999999999994</ele>
        <time>2020-03-15T11:01:08Z</time>
      </trkpt>
      <trkpt lat="50.74673599563539" lon="4.424436707049608">
        <ele>83.299999999999997</ele>
        <time>2020-03-15T11:01:19Z</time>
      </trkpt>
      <trkpt lat="50.747866714373231" lon="4.425037018954754">
        <ele>81.5</ele>
        <time>2020-03-15T11:02:23Z</time>
      </trkpt>
      <trkpt lat="50.748056648299098" lon="4.425189401954413">
        <ele>81.540000000000006</ele>
        <time>2020-03-15T11:02:36Z</time>
      </trkpt>
      <trkpt lat="50.74826879426837" lon="4.425341533496976">
        <ele>81.670000000000002</ele>
        <time>2020-03-15T11:02:57Z</time>
      </trkpt>
      <trkpt lat="50.748403575271368" lon="4.425457287579775">
        <ele>81.769999999999996</ele>
        <time>2020-03-15T11:03:11Z</time>
      </trkpt>
      <trkpt lat="50.748740779235959" lon="4.425603970885277">
        <ele>81.920000000000002</ele>
        <time>2020-03-15T11:03:33Z</time>
      </trkpt>
      <trkpt lat="50.748875811696053" lon="4.425711929798126">
        <ele>81.989999999999995</ele>
        <time>2020-03-15T11:03:44Z</time>
      </trkpt>
      <trkpt lat="50.748915458098054" lon="4.425735902041197">
        <ele>82.010000000000005</ele>
        <time>2020-03-15T11:03:49Z</time>
      </trkpt>
      <trkpt lat="50.748976059257984" lon="4.425791976973414">
        <ele>82.040000000000006</ele>
        <time>2020-03-15T11:03:54Z</time>
      </trkpt>
      <trkpt lat="50.749247716739774" lon="4.425890212878585">
        <ele>82.200000000000003</ele>
        <time>2020-03-15T11:04:15Z</time>
      </trkpt>
      <trkpt lat="50.749533120542765" lon="4.426058521494269">
        <ele>82.379999999999995</ele>
        <time>2020-03-15T11:04:39Z</time>
      </trkpt>
      <trkpt lat="50.749543514102697" lon="4.426062880083919">
        <ele>82.319999999999993</ele>
        <time>2020-03-15T11:04:40Z</time>
      </trkpt>
      <trkpt lat="50.74957737699151" lon="4.42607905715704">
        <ele>82.409999999999997</ele>
        <time>2020-03-15T11:04:43Z</time>
      </trkpt>
      <trkpt lat="50.749815506860614" lon="4.426145609468222">
        <ele>81.780000000000001</ele>
        <time>2020-03-15T11:05:00Z</time>
      </trkpt>
      <trkpt lat="50.749911060556769" lon="4.426259603351355">
        <ele>81.930000000000007</ele>
        <time>2020-03-15T11:05:18Z</time>
      </trkpt>
      <trkpt lat="50.750552946701646" lon="4.426745921373367">
        <ele>79.560000000000002</ele>
        <time>2020-03-15T11:06:08Z</time>
      </trkpt>
      <trkpt lat="50.751049490645528" lon="4.426999893039465">
        <ele>78.799999999999997</ele>
        <time>2020-03-15T11:06:29Z</time>
      </trkpt>
      <trkpt lat="50.751199945807457" lon="4.427091339603066">
        <ele>78.840000000000003</ele>
        <time>2020-03-15T11:06:45Z</time>
      </trkpt>
      <trkpt lat="50.751570090651512" lon="4.427226120606065">
        <ele>78.939999999999998</ele>
        <time>2020-03-15T11:07:07Z</time>
      </trkpt>
      <trkpt lat="50.751731945201755" lon="4.427306754514575">
        <ele>78.980000000000004</ele>
        <time>2020-03-15T11:07:18Z</time>
      </trkpt>
      <trkpt lat="50.752070071175694" lon="4.427511189132929">
        <ele>78.340000000000003</ele>
        <time>2020-03-15T11:07:42Z</time>
      </trkpt>
      <trkpt lat="50.752296131104231" lon="4.427624512463808">
        <ele>78.530000000000001</ele>
        <time>2020-03-15T11:07:56Z</time>
      </trkpt>
      <trkpt lat="50.752559825778008" lon="4.427776476368308">
        <ele>78.700000000000003</ele>
        <time>2020-03-15T11:08:15Z</time>
      </trkpt>
      <trkpt lat="50.75267574749887" lon="4.427832635119557">
        <ele>81.019999999999996</ele>
        <time>2020-03-15T11:08:24Z</time>
      </trkpt>
      <trkpt lat="50.752806840464473" lon="4.427856104448438">
        <ele>81.040000000000006</ele>
        <time>2020-03-15T11:08:33Z</time>
      </trkpt>
      <trkpt lat="50.752865094691515" lon="4.427902791649103">
        <ele>81.049999999999997</ele>
        <time>2020-03-15T11:08:38Z</time>
      </trkpt>
      <trkpt lat="50.753029212355614" lon="4.428061544895172">
        <ele>81.030000000000001</ele>
        <time>2020-03-15T11:08:55Z</time>
      </trkpt>
      <trkpt lat="50.753091322258115" lon="4.428097167983651">
        <ele>76.920000000000002</ele>
        <time>2020-03-15T11:09:02Z</time>
      </trkpt>
      <trkpt lat="50.753095513209701" lon="4.428098173812032">
        <ele>80.709999999999994</ele>
        <time>2020-03-15T11:09:03Z</time>
      </trkpt>
      <trkpt lat="50.753118982538581" lon="4.428089959546924">
        <ele>80.659999999999997</ele>
        <time>2020-03-15T11:09:07Z</time>
      </trkpt>
      <trkpt lat="50.753286620602012" lon="4.428218873217702">
        <ele>79.840000000000003</ele>
        <time>2020-03-15T11:10:44Z</time>
      </trkpt>
      <trkpt lat="50.753352167084813" lon="4.42826472222805">
        <ele>82.219999999999999</ele>
        <time>2020-03-15T11:10:49Z</time>
      </trkpt>
      <trkpt lat="50.753446966409683" lon="4.428252903744578">
        <ele>82.319999999999993</ele>
        <time>2020-03-15T11:10:56Z</time>
      </trkpt>
      <trkpt lat="50.753574036061764" lon="4.428136646747589">
        <ele>82.450000000000003</ele>
        <time>2020-03-15T11:11:08Z</time>
      </trkpt>
      <trkpt lat="50.753631703555584" lon="4.427846716716886">
        <ele>82.629999999999995</ele>
        <time>2020-03-15T11:11:27Z</time>
      </trkpt>
      <trkpt lat="50.754022970795631" lon="4.427453856915236">
        <ele>82.959999999999994</ele>
        <time>2020-03-15T11:12:08Z</time>
      </trkpt>
      <trkpt lat="50.754240397363901" lon="4.427559049800038">
        <ele>83.079999999999998</ele>
        <time>2020-03-15T11:12:27Z</time>
      </trkpt>
      <trkpt lat="50.754311475902796" lon="4.427599785849452">
        <ele>83.079999999999998</ele>
        <time>2020-03-15T11:12:33Z</time>
      </trkpt>
      <trkpt lat="50.754586989060044" lon="4.427886949852109">
        <ele>83.109999999999999</ele>
        <time>2020-03-15T11:12:55Z</time>
      </trkpt>
      <trkpt lat="50.754831153899431" lon="4.428147878497839">
        <ele>83.060000000000002</ele>
        <time>2020-03-15T11:13:13Z</time>
      </trkpt>
      <trkpt lat="50.75508713722229" lon="4.428467899560928">
        <ele>83.099999999999994</ele>
        <time>2020-03-15T11:13:33Z</time>
      </trkpt>
      <trkpt lat="50.755254188552499" lon="4.42859597504139">
        <ele>83.120000000000005</ele>
        <time>2020-03-15T11:13:46Z</time>
      </trkpt>
      <trkpt lat="50.755491396412253" lon="4.428814575076103">
        <ele>83.090000000000003</ele>
        <time>2020-03-15T11:14:08Z</time>
      </trkpt>
      <trkpt lat="50.755790546536446" lon="4.428983386605978">
        <ele>83.079999999999998</ele>
        <time>2020-03-15T11:14:28Z</time>
      </trkpt>
      <trkpt lat="50.756186842918396" lon="4.429148510098457">
        <ele>82.980000000000004</ele>
        <time>2020-03-15T11:14:47Z</time>
      </trkpt>
      <trkpt lat="50.756257167086005" lon="4.429190251976252">
        <ele>82.980000000000004</ele>
        <time>2020-03-15T11:14:50Z</time>
      </trkpt>
      <trkpt lat="50.756293041631579" lon="4.429200142621994">
        <ele>82.980000000000004</ele>
        <time>2020-03-15T11:14:51Z</time>
      </trkpt>
      <trkpt lat="50.756537457928061" lon="4.429335426539183">
        <ele>82.989999999999995</ele>
        <time>2020-03-15T11:15:01Z</time>
      </trkpt>
      <trkpt lat="50.756790172308683" lon="4.429565258324146">
        <ele>82.989999999999995</ele>
        <time>2020-03-15T11:15:11Z</time>
      </trkpt>
      <trkpt lat="50.756821939721704" lon="4.429577495902777">
        <ele>82.969999999999999</ele>
        <time>2020-03-15T11:15:12Z</time>
      </trkpt>
      <trkpt lat="50.756846917793155" lon="4.429594092071056">
        <ele>82.989999999999995</ele>
        <time>2020-03-15T11:15:13Z</time>
      </trkpt>
      <trkpt lat="50.756875164806843" lon="4.429618902504444">
        <ele>82.959999999999994</ele>
        <time>2020-03-15T11:15:14Z</time>
      </trkpt>
      <trkpt lat="50.756907686591148" lon="4.42964605987072">
        <ele>82.950000000000003</ele>
        <time>2020-03-15T11:15:15Z</time>
      </trkpt>
      <trkpt lat="50.756964683532715" lon="4.429657207801938">
        <ele>82.950000000000003</ele>
        <time>2020-03-15T11:15:16Z</time>
      </trkpt>
      <trkpt lat="50.757010364905" lon="4.429678497835994">
        <ele>82.930000000000007</ele>
        <time>2020-03-15T11:15:17Z</time>
      </trkpt>
      <trkpt lat="50.75704850256443" lon="4.429701045155525">
        <ele>82.930000000000007</ele>
        <time>2020-03-15T11:15:18Z</time>
      </trkpt>
      <trkpt lat="50.757082365453243" lon="4.429717222228646">
        <ele>82.930000000000007</ele>
        <time>2020-03-15T11:15:19Z</time>
      </trkpt>
      <trkpt lat="50.757121425122023" lon="4.429744044318795">
        <ele>83.730000000000004</ele>
        <time>2020-03-15T11:15:20Z</time>
      </trkpt>
      <trkpt lat="50.757166938856244" lon="4.429758880287409">
        <ele>83.709999999999994</ele>
        <time>2020-03-15T11:15:21Z</time>
      </trkpt>
      <trkpt lat="50.757216308265924" lon="4.429804645478725">
        <ele>83.659999999999997</ele>
        <time>2020-03-15T11:15:23Z</time>
      </trkpt>
      <trkpt lat="50.757243046537042" lon="4.429816883057356">
        <ele>83.670000000000002</ele>
        <time>2020-03-15T11:15:24Z</time>
      </trkpt>
      <trkpt lat="50.757273305207491" lon="4.429822079837322">
        <ele>83.629999999999995</ele>
        <time>2020-03-15T11:15:25Z</time>
      </trkpt>
      <trkpt lat="50.757302474230528" lon="4.429830797016621">
        <ele>83.590000000000003</ele>
        <time>2020-03-15T11:15:26Z</time>
      </trkpt>
      <trkpt lat="50.757335079833865" lon="4.42983565852046">
        <ele>83.579999999999998</ele>
        <time>2020-03-15T11:15:27Z</time>
      </trkpt>
      <trkpt lat="50.757580921053886" lon="4.430037913843989">
        <ele>84.280000000000001</ele>
        <time>2020-03-15T11:15:37Z</time>
      </trkpt>
      <trkpt lat="50.75786791741848" lon="4.430242013186216">
        <ele>84.170000000000002</ele>
        <time>2020-03-15T11:15:46Z</time>
      </trkpt>
      <trkpt lat="50.759026631712914" lon="4.431304838508368">
        <ele>79.989999999999995</ele>
        <time>2020-03-15T11:16:52Z</time>
      </trkpt>
      <trkpt lat="50.759246740490198" lon="4.431667439639568">
        <ele>79.689999999999998</ele>
        <time>2020-03-15T11:17:14Z</time>
      </trkpt>
      <trkpt lat="50.759373810142279" lon="4.431973127648234">
        <ele>77.760000000000005</ele>
        <time>2020-03-15T11:17:33Z</time>
      </trkpt>
      <trkpt lat="50.75942125171423" lon="4.432383505627513">
        <ele>76.549999999999997</ele>
        <time>2020-03-15T11:17:54Z</time>
      </trkpt>
      <trkpt lat="50.759269623085856" lon="4.432361712679267">
        <ele>79.060000000000002</ele>
        <time>2020-03-15T11:18:13Z</time>
      </trkpt>
      <trkpt lat="50.759130232036114" lon="4.432450225576758">
        <ele>81.489999999999995</ele>
        <time>2020-03-15T11:18:26Z</time>
      </trkpt>
      <trkpt lat="50.759121850132942" lon="4.43246983923018">
        <ele>81.480000000000004</ele>
        <time>2020-03-15T11:18:27Z</time>
      </trkpt>
      <trkpt lat="50.759105086326599" lon="4.432509150356054">
        <ele>81.450000000000003</ele>
        <time>2020-03-15T11:18:29Z</time>
      </trkpt>
      <trkpt lat="50.75910952873528" lon="4.43257050588727">
        <ele>81.409999999999997</ele>
        <time>2020-03-15T11:18:32Z</time>
      </trkpt>
      <trkpt lat="50.759245064109564" lon="4.432798242196441">
        <ele>81.180000000000007</ele>
        <time>2020-03-15T11:18:44Z</time>
      </trkpt>
      <trkpt lat="50.759508339688182" lon="4.433095464482904">
        <ele>81.120000000000005</ele>
        <time>2020-03-15T11:18:58Z</time>
      </trkpt>
      <trkpt lat="50.759661812335253" lon="4.433332001790404">
        <ele>81.079999999999998</ele>
        <time>2020-03-15T11:19:03Z</time>
      </trkpt>
      <trkpt lat="50.760150393471122" lon="4.434004900977016">
        <ele>81.030000000000001</ele>
        <time>2020-03-15T11:19:16Z</time>
      </trkpt>
      <trkpt lat="50.76047376729548" lon="4.434146890416741">
        <ele>81.040000000000006</ele>
        <time>2020-03-15T11:19:23Z</time>
      </trkpt>
      <trkpt lat="50.760755566880107" lon="4.434176981449127">
        <ele>81.069999999999993</ele>
        <time>2020-03-15T11:19:29Z</time>
      </trkpt>
      <trkpt lat="50.761278178542852" lon="4.434331795200706">
        <ele>81.109999999999999</ele>
        <time>2020-03-15T11:19:40Z</time>
      </trkpt>
      <trkpt lat="50.761918891221285" lon="4.434479651972652">
        <ele>81.219999999999999</ele>
        <time>2020-03-15T11:19:53Z</time>
      </trkpt>
      <trkpt lat="50.762132294476032" lon="4.434518208727241">
        <ele>81.260000000000005</ele>
        <time>2020-03-15T11:19:57Z</time>
      </trkpt>
      <trkpt lat="50.762555496767163" lon="4.434598255902529">
        <ele>81.359999999999999</ele>
        <time>2020-03-15T11:20:05Z</time>
      </trkpt>
      <trkpt lat="50.762605117633939" lon="4.434634801000357">
        <ele>81.370000000000005</ele>
        <time>2020-03-15T11:20:06Z</time>
      </trkpt>
      <trkpt lat="50.762652056291699" lon="4.434684505686164">
        <ele>81.379999999999995</ele>
        <time>2020-03-15T11:20:07Z</time>
      </trkpt>
      <trkpt lat="50.762695474550128" lon="4.434739658609033">
        <ele>81.390000000000001</ele>
        <time>2020-03-15T11:20:08Z</time>
      </trkpt>
      <trkpt lat="50.76273419894278" lon="4.434797326102853">
        <ele>81.390000000000001</ele>
        <time>2020-03-15T11:20:09Z</time>
      </trkpt>
      <trkpt lat="50.762769067659974" lon="4.434858597815037">
        <ele>81.390000000000001</ele>
        <time>2020-03-15T11:20:10Z</time>
      </trkpt>
      <trkpt lat="50.762801086530089" lon="4.434919198974967">
        <ele>81.400000000000006</ele>
        <time>2020-03-15T11:20:11Z</time>
      </trkpt>
      <trkpt lat="50.76283142901957" lon="4.434983404353261">
        <ele>81.430000000000007</ele>
        <time>2020-03-15T11:20:12Z</time>
      </trkpt>
      <trkpt lat="50.762920025736094" lon="4.435185492038727">
        <ele>81.459999999999994</ele>
        <time>2020-03-15T11:20:15Z</time>
      </trkpt>
      <trkpt lat="50.762943578884006" lon="4.4352594204247">
        <ele>81.469999999999999</ele>
        <time>2020-03-15T11:20:16Z</time>
      </trkpt>
      <trkpt lat="50.762986745685339" lon="4.435491934418678">
        <ele>81.5</ele>
        <time>2020-03-15T11:20:19Z</time>
      </trkpt>
      <trkpt lat="50.762996301054955" lon="4.435653537511826">
        <ele>81.530000000000001</ele>
        <time>2020-03-15T11:20:21Z</time>
      </trkpt>
      <trkpt lat="50.762995043769479" lon="4.43573048338294">
        <ele>81.519999999999996</ele>
        <time>2020-03-15T11:20:22Z</time>
      </trkpt>
      <trkpt lat="50.762987080961466" lon="4.435808602720499">
        <ele>81.540000000000006</ele>
        <time>2020-03-15T11:20:23Z</time>
      </trkpt>
      <trkpt lat="50.762935616075993" lon="4.436125941574574">
        <ele>81.569999999999993</ele>
        <time>2020-03-15T11:20:27Z</time>
      </trkpt>
      <trkpt lat="50.762843582779169" lon="4.436423415318131">
        <ele>81.579999999999998</ele>
        <time>2020-03-15T11:20:31Z</time>
      </trkpt>
      <trkpt lat="50.762444939464331" lon="4.436854496598244">
        <ele>81.700000000000003</ele>
        <time>2020-03-15T11:20:40Z</time>
      </trkpt>
      <trkpt lat="50.762174623087049" lon="4.437072761356831">
        <ele>81.849999999999994</ele>
        <time>2020-03-15T11:20:49Z</time>
      </trkpt>
      <trkpt lat="50.762176802381873" lon="4.437121711671352">
        <ele>81.920000000000002</ele>
        <time>2020-03-15T11:20:52Z</time>
      </trkpt>
      <trkpt lat="50.762183843180537" lon="4.437140822410584">
        <ele>81.950000000000003</ele>
        <time>2020-03-15T11:20:53Z</time>
      </trkpt>
      <trkpt lat="50.762192727997899" lon="4.437157334759831">
        <ele>81.950000000000003</ele>
        <time>2020-03-15T11:20:54Z</time>
      </trkpt>
      <trkpt lat="50.762201696634293" lon="4.437170326709747">
        <ele>81.959999999999994</ele>
        <time>2020-03-15T11:20:55Z</time>
      </trkpt>
      <trkpt lat="50.76221083290875" lon="4.437182396650314">
        <ele>81.969999999999999</ele>
        <time>2020-03-15T11:20:56Z</time>
      </trkpt>
      <trkpt lat="50.762259028851986" lon="4.437246350571513">
        <ele>81.980000000000004</ele>
        <time>2020-03-15T11:21:01Z</time>
      </trkpt>
      <trkpt lat="50.76227243989706" lon="4.437255738303065">
        <ele>82.019999999999996</ele>
        <time>2020-03-15T11:21:02Z</time>
      </trkpt>
      <trkpt lat="50.762283755466342" lon="4.437264204025269">
        <ele>82.040000000000006</ele>
        <time>2020-03-15T11:21:03Z</time>
      </trkpt>
      <trkpt lat="50.762293227016926" lon="4.437277028337121">
        <ele>82.010000000000005</ele>
        <time>2020-03-15T11:21:04Z</time>
      </trkpt>
      <trkpt lat="50.762358605861664" lon="4.437527563422918">
        <ele>82.219999999999999</ele>
        <time>2020-03-15T11:21:18Z</time>
      </trkpt>
      <trkpt lat="50.76247863471508" lon="4.437766447663307">
        <ele>82.420000000000002</ele>
        <time>2020-03-15T11:21:36Z</time>
      </trkpt>
      <trkpt lat="50.76256362721324" lon="4.438202138990164">
        <ele>82.519999999999996</ele>
        <time>2020-03-15T11:21:57Z</time>
      </trkpt>
      <trkpt lat="50.762567482888699" lon="4.438475305214524">
        <ele>82.549999999999997</ele>
        <time>2020-03-15T11:22:15Z</time>
      </trkpt>
      <trkpt lat="50.762420045211911" lon="4.438567338511348">
        <ele>79.799999999999997</ele>
        <time>2020-03-15T11:22:31Z</time>
      </trkpt>
      <trkpt lat="50.762276547029614" lon="4.438633639365435">
        <ele>77.849999999999994</ele>
        <time>2020-03-15T11:22:53Z</time>
      </trkpt>
      <trkpt lat="50.762219717726111" lon="4.438923234120011">
        <ele>74.980000000000004</ele>
        <time>2020-03-15T11:23:12Z</time>
      </trkpt>
      <trkpt lat="50.761957783252001" lon="4.439466632902622">
        <ele>73.950000000000003</ele>
        <time>2020-03-15T11:23:39Z</time>
      </trkpt>
      <trkpt lat="50.76193087734282" lon="4.439492532983422">
        <ele>73.950000000000003</ele>
        <time>2020-03-15T11:23:40Z</time>
      </trkpt>
      <trkpt lat="50.761914532631636" lon="4.439545422792435">
        <ele>73.950000000000003</ele>
        <time>2020-03-15T11:23:42Z</time>
      </trkpt>
      <trkpt lat="50.761913191527128" lon="4.439581464976072">
        <ele>73.939999999999998</ele>
        <time>2020-03-15T11:23:43Z</time>
      </trkpt>
      <trkpt lat="50.761899026110768" lon="4.439612729474902">
        <ele>73.939999999999998</ele>
        <time>2020-03-15T11:23:44Z</time>
      </trkpt>
      <trkpt lat="50.76188150793314" lon="4.439650615677238">
        <ele>73.939999999999998</ele>
        <time>2020-03-15T11:23:45Z</time>
      </trkpt>
      <trkpt lat="50.761866588145494" lon="4.439684981480241">
        <ele>73.930000000000007</ele>
        <time>2020-03-15T11:23:46Z</time>
      </trkpt>
      <trkpt lat="50.761845214292407" lon="4.439724544063211">
        <ele>73.939999999999998</ele>
        <time>2020-03-15T11:23:47Z</time>
      </trkpt>
      <trkpt lat="50.761833982542157" lon="4.439759077504277">
        <ele>73.930000000000007</ele>
        <time>2020-03-15T11:23:48Z</time>
      </trkpt>
      <trkpt lat="50.761829540133476" lon="4.43979880772531">
        <ele>76.189999999999998</ele>
        <time>2020-03-15T11:23:49Z</time>
      </trkpt>
      <trkpt lat="50.761814117431641" lon="4.439836610108614">
        <ele>76.189999999999998</ele>
        <time>2020-03-15T11:23:50Z</time>
      </trkpt>
      <trkpt lat="50.761743374168873" lon="4.440056132152677">
        <ele>76.939999999999998</ele>
        <time>2020-03-15T11:24:02Z</time>
      </trkpt>
      <trkpt lat="50.761600462719798" lon="4.44035972468555">
        <ele>76.840000000000003</ele>
        <time>2020-03-15T11:24:23Z</time>
      </trkpt>
      <trkpt lat="50.761586213484406" lon="4.440388139337301">
        <ele>76.840000000000003</ele>
        <time>2020-03-15T11:24:25Z</time>
      </trkpt>
      <trkpt lat="50.761609096080065" lon="4.440548904240131">
        <ele>74.450000000000003</ele>
        <time>2020-03-15T11:24:37Z</time>
      </trkpt>
      <trkpt lat="50.761822750791907" lon="4.440755350515246">
        <ele>74.439999999999998</ele>
        <time>2020-03-15T11:24:55Z</time>
      </trkpt>
      <trkpt lat="50.761838173493743" lon="4.440767671912909">
        <ele>74.409999999999997</ele>
        <time>2020-03-15T11:24:56Z</time>
      </trkpt>
      <trkpt lat="50.762035734951496" lon="4.441027762368321">
        <ele>74.269999999999996</ele>
        <time>2020-03-15T11:25:13Z</time>
      </trkpt>
      <trkpt lat="50.762306386604905" lon="4.441474350169301">
        <ele>74.010000000000005</ele>
        <time>2020-03-15T11:25:44Z</time>
      </trkpt>
      <trkpt lat="50.762323653325438" lon="4.441534113138914">
        <ele>74</ele>
        <time>2020-03-15T11:25:47Z</time>
      </trkpt>
      <trkpt lat="50.762384003028274" lon="4.44161307066679">
        <ele>73.959999999999994</ele>
        <time>2020-03-15T11:25:52Z</time>
      </trkpt>
      <trkpt lat="50.762390708550811" lon="4.441639976575971">
        <ele>73.950000000000003</ele>
        <time>2020-03-15T11:25:53Z</time>
      </trkpt>
      <trkpt lat="50.76240973547101" lon="4.441671827808023">
        <ele>73.930000000000007</ele>
        <time>2020-03-15T11:25:56Z</time>
      </trkpt>
      <trkpt lat="50.762547701597214" lon="4.441825216636062">
        <ele>73.810000000000002</ele>
        <time>2020-03-15T11:26:07Z</time>
      </trkpt>
      <trkpt lat="50.762736713513732" lon="4.442059323191643">
        <ele>73.510000000000005</ele>
        <time>2020-03-15T11:26:28Z</time>
      </trkpt>
      <trkpt lat="50.763435596600175" lon="4.442992312833667">
        <ele>72.730000000000004</ele>
        <time>2020-03-15T11:27:30Z</time>
      </trkpt>
      <trkpt lat="50.763546489179134" lon="4.443168500438333">
        <ele>72.609999999999999</ele>
        <time>2020-03-15T11:27:43Z</time>
      </trkpt>
      <trkpt lat="50.763553697615862" lon="4.443185348063707">
        <ele>72.590000000000003</ele>
        <time>2020-03-15T11:27:44Z</time>
      </trkpt>
      <trkpt lat="50.764263309538364" lon="4.444453530013561">
        <ele>71.900000000000006</ele>
        <time>2020-03-15T11:28:47Z</time>
      </trkpt>
      <trkpt lat="50.764298848807812" lon="4.444554364308715">
        <ele>71.859999999999999</ele>
        <time>2020-03-15T11:28:51Z</time>
      </trkpt>
      <trkpt lat="50.764425080269575" lon="4.444872457534075">
        <ele>71.739999999999995</ele>
        <time>2020-03-15T11:29:08Z</time>
      </trkpt>
      <trkpt lat="50.764599004760385" lon="4.445277638733387">
        <ele>71.609999999999999</ele>
        <time>2020-03-15T11:29:21Z</time>
      </trkpt>
      <trkpt lat="50.764637142419815" lon="4.445354752242565">
        <ele>71.590000000000003</ele>
        <time>2020-03-15T11:29:23Z</time>
      </trkpt>
      <trkpt lat="50.764686344191432" lon="4.44552406668663">
        <ele>71.549999999999997</ele>
        <time>2020-03-15T11:29:27Z</time>
      </trkpt>
      <trkpt lat="50.764880888164043" lon="4.446185063570738">
        <ele>69.609999999999999</ele>
        <time>2020-03-15T11:29:39Z</time>
      </trkpt>
      <trkpt lat="50.765045844018459" lon="4.446648247539997">
        <ele>68.780000000000001</ele>
        <time>2020-03-15T11:29:48Z</time>
      </trkpt>
      <trkpt lat="50.765059255063534" lon="4.446684122085571">
        <ele>68.769999999999996</ele>
        <time>2020-03-15T11:29:49Z</time>
      </trkpt>
      <trkpt lat="50.765072666108608" lon="4.446738688275218">
        <ele>68.769999999999996</ele>
        <time>2020-03-15T11:29:50Z</time>
      </trkpt>
      <trkpt lat="50.765228820964694" lon="4.447208242490888">
        <ele>67.670000000000002</ele>
        <time>2020-03-15T11:30:01Z</time>
      </trkpt>
      <trkpt lat="50.765386736020446" lon="4.447835208848119">
        <ele>66.920000000000002</ele>
        <time>2020-03-15T11:30:48Z</time>
      </trkpt>
      <trkpt lat="50.765532664954662" lon="4.448251370340586">
        <ele>66.280000000000001</ele>
        <time>2020-03-15T11:31:08Z</time>
      </trkpt>
      <trkpt lat="50.765859726816416" lon="4.449205230921507">
        <ele>63.119999999999997</ele>
        <time>2020-03-15T11:31:52Z</time>
      </trkpt>
      <trkpt lat="50.765868024900556" lon="4.449224844574928">
        <ele>63.130000000000003</ele>
        <time>2020-03-15T11:31:53Z</time>
      </trkpt>
      <trkpt lat="50.76587556861341" lon="4.449249655008316">
        <ele>62.310000000000002</ele>
        <time>2020-03-15T11:31:54Z</time>
      </trkpt>
      <trkpt lat="50.766163989901543" lon="4.450032440945506">
        <ele>61.93</ele>
        <time>2020-03-15T11:32:34Z</time>
      </trkpt>
      <trkpt lat="50.766305141150951" lon="4.44983915425837">
        <ele>62.060000000000002</ele>
        <time>2020-03-15T11:32:47Z</time>
      </trkpt>
      <trkpt lat="50.766396168619394" lon="4.449650142341852">
        <ele>64.670000000000002</ele>
        <time>2020-03-15T11:32:58Z</time>
      </trkpt>
      <trkpt lat="50.766521142795682" lon="4.44939055480063">
        <ele>64.780000000000001</ele>
        <time>2020-03-15T11:33:12Z</time>
      </trkpt>
      <trkpt lat="50.766670927405357" lon="4.449069444090128">
        <ele>65.969999999999999</ele>
        <time>2020-03-15T11:33:29Z</time>
      </trkpt>
      <trkpt lat="50.766710238531232" lon="4.448902225121856">
        <ele>66.060000000000002</ele>
        <time>2020-03-15T11:33:37Z</time>
      </trkpt>
    </trkseg>
  </trk>

</gpx>